createdAt,value
2023-03-13T00:02:13.898Z,99.90
2023-03-13T00:04:40.699Z,99.90
2023-03-13T00:07:07.458Z,99.90
2023-03-13T00:09:34.129Z,99.90
2023-03-13T00:12:00.805Z,99.90
2023-03-13T00:14:27.526Z,99.90
2023-03-13T00:16:54.239Z,99.90
2023-03-13T00:19:20.883Z,99.90
2023-03-13T00:21:47.596Z,99.90
2023-03-13T00:24:14.791Z,99.90
2023-03-13T00:26:41.530Z,99.90
2023-03-13T00:29:08.260Z,99.90
2023-03-13T00:31:35.052Z,99.90
2023-03-13T00:34:03.270Z,99.90
2023-03-13T00:36:33.137Z,99.90
2023-03-13T00:39:00.411Z,99.90
2023-03-13T00:41:29.863Z,99.90
2023-03-13T00:43:57.331Z,99.90
2023-03-13T00:46:26.542Z,99.90
2023-03-13T00:48:53.759Z,99.90
2023-03-13T00:51:22.000Z,99.90
2023-03-13T00:53:48.965Z,99.90
2023-03-13T00:56:17.643Z,99.90
2023-03-13T00:58:46.162Z,99.90
2023-03-13T01:01:27.784Z,99.90
2023-03-13T01:04:03.531Z,99.90
2023-03-13T01:06:32.244Z,99.90
2023-03-13T01:08:59.715Z,99.90
2023-03-13T01:11:28.749Z,99.90
2023-03-13T01:13:58.065Z,99.90
2023-03-13T01:16:26.106Z,99.90
2023-03-13T01:18:55.417Z,99.90
2023-03-13T01:21:23.826Z,99.90
2023-03-13T01:23:53.068Z,99.90
2023-03-13T01:26:21.291Z,99.90
2023-03-13T01:28:48.295Z,99.90
2023-03-13T01:31:18.690Z,99.90
2023-03-13T01:33:46.954Z,99.90
2023-03-13T01:36:14.198Z,99.90
2023-03-13T01:38:41.000Z,99.90
2023-03-13T01:41:10.491Z,99.90
2023-03-13T01:43:37.768Z,99.90
2023-03-13T01:46:08.185Z,99.90
2023-03-13T01:49:05.107Z,99.90
2023-03-13T01:51:49.914Z,99.90
2023-03-13T01:54:24.956Z,99.90
2023-03-13T01:57:03.069Z,99.90
2023-03-13T01:59:39.181Z,99.90
2023-03-13T02:02:06.620Z,99.90
2023-03-13T02:04:39.578Z,99.90
2023-03-13T02:07:12.393Z,99.90
2023-03-13T02:09:42.186Z,99.90
2023-03-13T02:12:17.501Z,99.90
2023-03-13T02:14:46.868Z,99.90
2023-03-13T02:17:13.997Z,99.90
2023-03-13T02:19:51.874Z,99.90
2023-03-13T02:22:46.003Z,99.90
2023-03-13T02:25:38.999Z,99.90
2023-03-13T02:28:09.842Z,99.90
2023-03-13T02:30:38.012Z,99.90
2023-03-13T02:33:04.980Z,99.90
2023-03-13T02:35:33.529Z,99.90
2023-03-13T02:38:03.798Z,99.90
2023-03-13T02:40:34.942Z,99.90
2023-03-13T02:43:05.071Z,99.90
2023-03-13T02:45:31.769Z,99.90
2023-03-13T02:47:58.469Z,99.90
2023-03-13T02:50:25.170Z,99.90
2023-03-13T02:52:58.834Z,99.90
2023-03-13T02:55:30.977Z,99.90
2023-03-13T02:57:57.684Z,99.90
2023-03-13T03:00:26.834Z,99.90
2023-03-13T03:02:54.377Z,99.90
2023-03-13T03:05:22.214Z,99.90
2023-03-13T03:07:50.405Z,99.90
2023-03-13T03:10:18.423Z,99.90
2023-03-13T03:12:45.229Z,99.90
2023-03-13T03:15:12.295Z,99.90
2023-03-13T03:17:39.489Z,99.90
2023-03-13T03:20:11.857Z,99.90
2023-03-13T03:22:40.712Z,99.90
2023-03-13T03:25:09.268Z,99.90
2023-03-13T03:27:36.528Z,99.90
2023-03-13T03:30:04.613Z,99.90
2023-03-13T03:32:31.405Z,99.90
2023-03-13T03:34:58.201Z,99.90
2023-03-13T03:37:25.023Z,99.90
2023-03-13T03:39:51.765Z,99.90
2023-03-13T03:42:18.491Z,99.90
2023-03-13T03:44:45.239Z,99.90
2023-03-13T03:47:12.053Z,99.90
2023-03-13T03:49:38.710Z,99.90
2023-03-13T03:52:05.764Z,99.90
2023-03-13T03:54:32.614Z,99.90
2023-03-13T03:56:59.330Z,99.90
2023-03-13T03:59:26.363Z,99.90
2023-03-13T04:01:53.130Z,99.90
2023-03-13T04:04:19.959Z,99.90
2023-03-13T04:06:46.663Z,99.90
2023-03-13T04:09:13.412Z,99.90
2023-03-13T04:11:40.136Z,99.90
2023-03-13T04:14:07.110Z,99.90
2023-03-13T04:16:33.939Z,99.90
2023-03-13T04:19:00.642Z,99.90
2023-03-13T04:21:27.283Z,99.90
2023-03-13T04:23:54.017Z,99.90
2023-03-13T04:26:20.750Z,99.90
2023-03-13T04:28:47.458Z,99.90
2023-03-13T04:31:14.189Z,99.90
2023-03-13T04:33:41.013Z,99.90
2023-03-13T04:36:08.121Z,99.90
2023-03-13T04:38:34.778Z,99.90
2023-03-13T04:41:01.423Z,99.90
2023-03-13T04:43:28.101Z,99.90
2023-03-13T04:45:55.060Z,99.90
2023-03-13T04:48:22.396Z,99.90
2023-03-13T04:50:49.730Z,99.90
2023-03-13T04:53:16.500Z,99.90
2023-03-13T04:55:43.449Z,99.90
2023-03-13T04:58:10.169Z,99.90
2023-03-13T05:00:39.439Z,99.90
2023-03-13T05:03:06.194Z,99.90
2023-03-13T05:05:35.225Z,99.90
2023-03-13T05:08:02.481Z,99.90
2023-03-13T05:10:29.197Z,99.90
2023-03-13T05:12:55.946Z,99.90
2023-03-13T05:15:22.627Z,99.90
2023-03-13T05:17:49.348Z,99.90
2023-03-13T05:20:16.211Z,99.90
2023-03-13T05:22:42.929Z,99.90
2023-03-13T05:25:12.344Z,99.90
2023-03-13T05:27:39.083Z,99.90
2023-03-13T05:30:06.704Z,99.90
2023-03-13T05:32:33.520Z,99.90
2023-03-13T05:35:00.220Z,99.90
2023-03-13T05:37:27.027Z,99.90
2023-03-13T05:39:53.793Z,99.90
2023-03-13T05:42:20.516Z,99.90
2023-03-13T05:44:47.160Z,99.90
2023-03-13T05:47:13.919Z,99.90
2023-03-13T05:49:40.669Z,99.90
2023-03-13T05:52:07.386Z,99.90
2023-03-13T05:54:34.091Z,99.90
2023-03-13T05:57:00.885Z,99.90
2023-03-13T05:59:27.548Z,99.90
2023-03-13T06:01:54.222Z,99.90
2023-03-13T06:04:21.180Z,99.90
2023-03-13T06:06:48.050Z,99.90
2023-03-13T06:09:14.846Z,99.90
2023-03-13T06:11:41.728Z,99.90
2023-03-13T06:14:08.503Z,99.90
2023-03-13T06:16:35.550Z,99.90
2023-03-13T06:19:02.371Z,99.90
2023-03-13T06:21:29.437Z,99.90
2023-03-13T06:23:56.679Z,99.90
2023-03-13T06:26:25.704Z,99.90
2023-03-13T06:28:52.503Z,99.90
2023-03-13T06:31:19.350Z,99.90
2023-03-13T06:33:46.196Z,99.90
2023-03-13T06:36:13.546Z,99.90
2023-03-13T06:38:40.324Z,99.90
2023-03-13T06:41:07.004Z,99.90
2023-03-13T06:43:34.024Z,99.90
2023-03-13T06:46:05.310Z,99.90
2023-03-13T06:48:32.239Z,99.90
2023-03-13T06:50:59.018Z,99.90
2023-03-13T06:53:25.701Z,99.90
2023-03-13T06:55:52.565Z,99.90
2023-03-13T06:58:31.659Z,99.90
2023-03-13T07:01:00.282Z,99.90
2023-03-13T07:03:27.176Z,99.90
2023-03-13T07:05:58.197Z,99.90
2023-03-13T07:08:25.673Z,99.90
2023-03-13T07:10:53.169Z,99.90
2023-03-13T07:13:21.731Z,99.90
2023-03-13T07:15:48.608Z,99.90
2023-03-13T07:18:15.473Z,99.90
2023-03-13T07:20:42.218Z,99.90
2023-03-13T07:23:08.992Z,99.90
2023-03-13T07:25:35.912Z,99.90
2023-03-13T07:28:02.689Z,99.90
2023-03-13T07:30:29.469Z,99.90
2023-03-13T07:32:56.216Z,99.90
2023-03-13T07:35:22.952Z,99.90
2023-03-13T07:37:49.630Z,99.90
2023-03-13T07:40:16.565Z,99.90
2023-03-13T07:42:44.041Z,99.90
2023-03-13T07:45:11.038Z,99.90
2023-03-13T07:47:37.773Z,99.90
2023-03-13T07:50:05.077Z,99.90
2023-03-13T07:52:32.671Z,99.90
2023-03-13T07:54:59.438Z,99.90
2023-03-13T07:57:26.162Z,99.90
2023-03-13T07:59:52.873Z,99.90
2023-03-13T08:02:19.639Z,99.90
2023-03-13T08:04:46.534Z,99.90
2023-03-13T08:07:13.172Z,99.90
2023-03-13T08:09:41.448Z,99.90
2023-03-13T08:12:08.988Z,99.90
2023-03-13T08:14:35.841Z,99.90
2023-03-13T08:17:02.640Z,99.90
2023-03-13T08:19:29.514Z,99.90
2023-03-13T08:21:56.330Z,99.90
2023-03-13T08:24:23.038Z,99.90
2023-03-13T08:26:49.688Z,99.90
2023-03-13T08:29:16.459Z,99.90
2023-03-13T08:31:52.531Z,99.90
2023-03-13T08:34:19.718Z,99.90
2023-03-13T08:36:46.994Z,99.90
2023-03-13T08:39:18.918Z,99.90
2023-03-13T08:41:45.870Z,99.90
2023-03-13T08:44:14.659Z,99.90
2023-03-13T08:46:42.354Z,99.90
2023-03-13T08:49:09.698Z,99.90
2023-03-13T08:51:37.126Z,99.90
2023-03-13T08:54:05.113Z,99.90
2023-03-13T08:56:32.650Z,99.90
2023-03-13T08:59:01.691Z,99.90
2023-03-13T09:01:30.706Z,99.90
2023-03-13T09:03:58.172Z,99.90
2023-03-13T09:06:25.342Z,99.90
2023-03-13T09:08:52.294Z,99.90
2023-03-13T09:11:21.505Z,99.90
2023-03-13T09:13:50.233Z,99.90
2023-03-13T09:16:26.377Z,99.90
2023-03-13T09:18:53.936Z,99.90
2023-03-13T09:21:31.950Z,99.90
2023-03-13T09:23:59.083Z,99.90
2023-03-13T09:26:27.552Z,99.90
2023-03-13T09:28:55.159Z,99.90
2023-03-13T09:31:24.748Z,99.90
2023-03-13T09:33:51.984Z,99.90
2023-03-13T09:36:22.064Z,99.90
2023-03-13T09:38:50.535Z,99.90
2023-03-13T09:41:17.278Z,99.90
2023-03-13T09:44:05.417Z,99.90
2023-03-13T09:46:38.691Z,99.90
2023-03-13T09:49:35.255Z,99.90
2023-03-13T09:52:15.175Z,99.90
2023-03-13T09:54:46.310Z,99.90
2023-03-13T09:57:40.589Z,99.90
2023-03-13T10:00:19.715Z,99.90
2023-03-13T10:02:53.150Z,99.90
2023-03-13T10:05:26.034Z,99.90
2023-03-13T10:08:12.897Z,99.90
2023-03-13T10:10:48.797Z,99.90
2023-03-13T10:13:39.831Z,99.90
2023-03-13T10:16:20.631Z,99.90
2023-03-13T10:18:52.129Z,99.90
2023-03-13T10:21:21.765Z,99.90
2023-03-13T10:24:02.765Z,99.90
2023-03-13T10:26:34.985Z,99.90
2023-03-13T10:29:20.002Z,99.90
2023-03-13T10:32:00.190Z,99.90
2023-03-13T10:34:29.663Z,99.90
2023-03-13T10:37:01.414Z,99.90
2023-03-13T10:39:29.832Z,99.90
2023-03-13T10:42:11.044Z,99.90
2023-03-13T10:44:38.182Z,99.90
2023-03-13T10:47:06.771Z,99.90
2023-03-13T10:49:34.103Z,99.90
2023-03-13T10:52:03.557Z,99.90
2023-03-13T10:54:39.985Z,99.90
2023-03-13T10:57:19.058Z,99.90
2023-03-13T10:59:48.801Z,99.90
2023-03-13T11:02:32.144Z,99.90
2023-03-13T11:04:59.899Z,99.90
2023-03-13T11:07:32.592Z,99.90
2023-03-13T11:10:18.316Z,99.90
2023-03-13T11:12:47.732Z,99.90
2023-03-13T11:15:45.981Z,99.90
2023-03-13T11:18:22.689Z,99.90
2023-03-13T11:20:50.072Z,99.90
2023-03-13T11:23:28.332Z,99.90
2023-03-13T11:26:26.829Z,99.90
2023-03-13T11:29:12.100Z,99.90
2023-03-13T11:31:51.180Z,99.90
2023-03-13T11:34:46.271Z,99.90
2023-03-13T11:37:15.714Z,99.90
2023-03-13T11:40:10.203Z,99.90
2023-03-13T11:42:54.264Z,99.90
2023-03-13T11:45:52.092Z,99.90
2023-03-13T11:48:46.169Z,99.90
2023-03-13T11:51:20.558Z,99.90
2023-03-13T11:54:07.342Z,99.90
2023-03-13T11:56:52.524Z,99.90
2023-03-13T11:59:44.081Z,99.90
2023-03-13T12:02:13.597Z,99.90
2023-03-13T12:04:56.700Z,99.90
2023-03-13T12:07:38.286Z,99.90
2023-03-13T12:10:19.406Z,99.90
2023-03-13T12:13:05.882Z,99.90
2023-03-13T12:15:39.897Z,99.90
2023-03-13T12:18:30.094Z,99.90
2023-03-13T12:21:12.203Z,99.90
2023-03-13T12:24:04.918Z,99.90
2023-03-13T12:27:02.682Z,99.90
2023-03-13T12:29:48.372Z,99.90
2023-03-13T12:32:22.198Z,99.90
2023-03-13T12:35:08.255Z,99.90
2023-03-13T12:37:45.436Z,99.90
2023-03-13T12:40:34.393Z,99.90
2023-03-13T12:43:06.631Z,99.90
2023-03-13T12:45:36.345Z,99.90
2023-03-13T12:48:41.439Z,99.90
2023-03-13T12:51:25.953Z,99.90
2023-03-13T12:54:29.061Z,99.90
2023-03-13T12:57:02.281Z,99.90
2023-03-13T12:59:38.547Z,99.90
2023-03-13T13:02:25.632Z,99.90
2023-03-13T13:04:54.666Z,99.90
2023-03-13T13:07:26.841Z,99.90
2023-03-13T13:10:11.187Z,99.90
2023-03-13T13:12:40.317Z,99.90
2023-03-13T13:15:27.475Z,99.90
2023-03-13T13:18:11.370Z,99.90
2023-03-13T13:20:41.185Z,99.90
2023-03-13T13:23:27.609Z,99.90
2023-03-13T13:25:56.551Z,99.90
2023-03-13T13:28:28.623Z,99.90
2023-03-13T13:30:56.584Z,99.90
2023-03-13T13:33:30.910Z,99.90
2023-03-13T13:36:09.569Z,99.90
2023-03-13T13:38:43.124Z,99.90
2023-03-13T13:41:09.799Z,99.90
2023-03-13T13:43:43.472Z,99.90
2023-03-13T13:46:31.382Z,99.90
2023-03-13T13:49:10.231Z,99.90
2023-03-13T13:51:41.534Z,99.90
2023-03-13T13:54:33.387Z,99.90
2023-03-13T13:57:06.264Z,99.90
2023-03-13T13:59:35.905Z,99.90
2023-03-13T14:02:17.671Z,99.90
2023-03-13T14:05:05.411Z,99.90
2023-03-13T14:07:55.378Z,99.90
2023-03-13T14:10:54.157Z,99.90
2023-03-13T14:13:22.519Z,99.90
2023-03-13T14:15:53.418Z,99.90
2023-03-13T14:18:24.206Z,99.90
2023-03-13T14:20:55.700Z,99.90
2023-03-13T14:23:34.849Z,99.90
2023-03-13T14:26:17.968Z,99.90
2023-03-13T14:28:48.439Z,99.90
2023-03-13T14:31:30.226Z,99.90
2023-03-13T14:33:58.602Z,99.90
2023-03-13T14:36:26.273Z,99.90
2023-03-13T14:39:02.162Z,99.90
2023-03-13T14:41:38.216Z,99.90
2023-03-13T14:44:19.466Z,99.90
2023-03-13T14:46:46.397Z,99.90
2023-03-13T14:49:25.691Z,99.90
2023-03-13T14:52:07.782Z,99.90
2023-03-13T14:54:36.966Z,99.90
2023-03-13T14:57:04.840Z,99.90
2023-03-13T14:59:31.892Z,99.90
2023-03-13T15:02:18.880Z,99.90
2023-03-13T15:04:52.599Z,99.90
2023-03-13T15:07:20.056Z,99.90
2023-03-13T15:09:47.619Z,99.90
2023-03-13T15:12:17.633Z,99.90
2023-03-13T15:14:46.656Z,99.90
2023-03-13T15:17:16.457Z,99.20
2023-03-13T15:19:47.654Z,99.60
2023-03-13T15:22:16.127Z,99.80
2023-03-13T15:24:59.623Z,99.50
2023-03-13T15:27:31.526Z,99.60
2023-03-13T15:29:58.227Z,98.50
2023-03-13T15:32:33.102Z,98.20
2023-03-13T15:35:01.845Z,98.00
2023-03-13T15:37:29.813Z,98.10
2023-03-13T15:39:57.484Z,98.00
2023-03-13T15:42:25.518Z,98.10
2023-03-13T15:44:52.307Z,97.00
2023-03-13T15:47:21.553Z,97.40
2023-03-13T15:49:48.460Z,97.80
2023-03-13T15:52:19.399Z,97.90
2023-03-13T15:54:46.961Z,97.70
2023-03-13T15:57:18.848Z,98.10
2023-03-13T15:59:45.564Z,98.30
2023-03-13T16:02:17.906Z,98.40
2023-03-13T16:04:45.578Z,98.40
2023-03-13T16:07:14.255Z,98.60
2023-03-13T16:09:41.931Z,98.20
2023-03-13T16:12:09.758Z,97.60
2023-03-13T16:14:37.425Z,97.40
2023-03-13T16:17:13.219Z,97.80
2023-03-13T16:19:39.915Z,98.10
2023-03-13T16:22:06.623Z,98.20
2023-03-13T16:24:33.340Z,98.40
2023-03-13T16:27:00.080Z,98.30
2023-03-13T16:29:27.936Z,97.70
2023-03-13T16:31:54.628Z,97.50
2023-03-13T16:34:21.372Z,97.60
2023-03-13T16:36:48.040Z,97.60
2023-03-13T16:39:16.558Z,97.40
2023-03-13T16:41:43.281Z,97.60
2023-03-13T16:44:10.475Z,97.60
2023-03-13T16:46:44.524Z,97.90
2023-03-13T16:49:16.801Z,97.70
2023-03-13T16:51:43.480Z,97.90
2023-03-13T16:54:12.097Z,98.20
2023-03-13T16:56:42.226Z,98.20
2023-03-13T16:59:21.491Z,98.10
2023-03-13T17:01:48.388Z,98.50
2023-03-13T17:04:15.252Z,98.80
2023-03-13T17:06:44.549Z,98.60
2023-03-13T17:09:15.333Z,98.70
2023-03-13T17:11:42.461Z,98.90
2023-03-13T17:14:09.664Z,99.40
2023-03-13T17:16:41.070Z,99.90
2023-03-13T17:19:07.904Z,99.90
2023-03-13T17:21:36.584Z,99.90
2023-03-13T17:24:03.953Z,99.90
2023-03-13T17:26:36.241Z,99.90
2023-03-13T17:29:03.686Z,99.90
2023-03-13T17:31:37.036Z,99.90
2023-03-13T17:34:05.723Z,99.90
2023-03-13T17:36:32.699Z,99.90
2023-03-13T17:39:01.288Z,99.90
2023-03-13T17:41:30.132Z,99.90
2023-03-13T17:43:56.905Z,99.90
2023-03-13T17:46:29.957Z,99.90
2023-03-13T17:48:56.704Z,99.90
2023-03-13T17:51:29.160Z,99.90
2023-03-13T17:53:56.610Z,99.90
2023-03-13T17:56:28.620Z,99.90
2023-03-13T17:59:00.154Z,99.90
2023-03-13T18:01:30.104Z,99.90
2023-03-13T18:03:57.983Z,99.90
2023-03-13T18:06:38.071Z,99.90
2023-03-13T18:09:08.580Z,99.90
2023-03-13T18:11:38.014Z,99.90
2023-03-13T18:14:06.364Z,99.90
2023-03-13T18:16:40.548Z,99.90
2023-03-13T18:19:15.203Z,99.90
2023-03-13T18:21:44.416Z,99.90
2023-03-13T18:24:12.445Z,99.90
2023-03-13T18:26:40.923Z,99.90
2023-03-13T18:29:14.964Z,99.90
2023-03-13T18:31:43.670Z,99.90
2023-03-13T18:34:11.509Z,99.90
2023-03-13T18:36:38.890Z,99.90
2023-03-13T18:39:06.440Z,99.90
2023-03-13T18:41:34.331Z,99.90
2023-03-13T18:44:03.879Z,99.90
2023-03-13T18:46:34.169Z,99.90
2023-03-13T18:49:01.162Z,99.90
2023-03-13T18:51:28.541Z,99.90
2023-03-13T18:53:56.456Z,99.90
2023-03-13T18:56:29.346Z,99.90
2023-03-13T18:58:56.730Z,99.90
2023-03-13T19:01:27.250Z,99.90
2023-03-13T19:03:54.024Z,99.90
2023-03-13T19:06:27.406Z,99.90
2023-03-13T19:08:59.591Z,99.90
2023-03-13T19:11:29.115Z,99.90
2023-03-13T19:13:56.731Z,99.90
2023-03-13T19:16:30.408Z,99.90
2023-03-13T19:18:58.155Z,99.90
2023-03-13T19:21:27.182Z,99.90
2023-03-13T19:23:54.717Z,99.90
2023-03-13T19:26:32.110Z,99.90
2023-03-13T19:28:59.559Z,99.90
2023-03-13T19:31:26.648Z,99.90
2023-03-13T19:33:54.411Z,99.90
2023-03-13T19:36:29.350Z,99.90
2023-03-13T19:38:56.390Z,99.90
2023-03-13T19:41:23.221Z,99.90
2023-03-13T19:43:52.416Z,99.90
2023-03-13T19:46:26.187Z,99.90
2023-03-13T19:48:57.816Z,99.90
2023-03-13T19:51:25.686Z,99.90
2023-03-13T19:53:53.326Z,99.90
2023-03-13T19:56:24.890Z,99.90
2023-03-13T19:58:56.940Z,99.90
2023-03-13T20:01:26.414Z,99.90
2023-03-13T20:03:53.980Z,99.90
2023-03-13T20:06:29.207Z,99.90
2023-03-13T20:09:00.202Z,99.90
2023-03-13T20:11:28.716Z,99.90
2023-03-13T20:13:56.257Z,99.90
2023-03-13T20:16:25.655Z,99.90
2023-03-13T20:18:53.530Z,99.90
2023-03-13T20:21:23.140Z,99.90
2023-03-13T20:23:52.756Z,99.90
2023-03-13T20:26:26.487Z,99.90
2023-03-13T20:29:00.121Z,99.90
2023-03-13T20:31:31.539Z,99.90
2023-03-13T20:34:00.255Z,99.90
2023-03-13T20:36:29.825Z,99.90
2023-03-13T20:38:56.747Z,99.90
2023-03-13T20:41:27.411Z,99.90
2023-03-13T20:43:54.549Z,99.90
2023-03-13T20:46:22.062Z,99.90
2023-03-13T20:48:49.995Z,99.90
2023-03-13T20:51:17.479Z,99.90
2023-03-13T20:53:44.741Z,99.90
2023-03-13T20:56:12.371Z,99.90
2023-03-13T20:58:39.465Z,99.90
2023-03-13T21:01:07.213Z,99.90
2023-03-13T21:03:35.702Z,99.90
2023-03-13T21:06:14.489Z,99.90
2023-03-13T21:08:41.796Z,99.90
2023-03-13T21:11:23.269Z,99.90
2023-03-13T21:13:51.443Z,99.90
2023-03-13T21:16:19.099Z,99.90
2023-03-13T21:18:46.665Z,99.90
2023-03-13T21:21:18.940Z,99.90
2023-03-13T21:23:46.853Z,99.90
2023-03-13T21:26:15.849Z,99.90
2023-03-13T21:28:42.870Z,99.90
2023-03-13T21:31:16.573Z,99.90
2023-03-13T21:33:45.047Z,99.90
2023-03-13T21:36:23.399Z,99.90
2023-03-13T21:38:52.681Z,99.90
2023-03-13T21:41:24.798Z,99.90
2023-03-13T21:43:52.022Z,99.90
2023-03-13T21:46:20.838Z,99.90
2023-03-13T21:48:47.760Z,99.90
2023-03-13T21:51:14.687Z,99.90
2023-03-13T21:53:44.385Z,99.90
2023-03-13T21:56:15.239Z,99.90
2023-03-13T21:58:42.504Z,99.90
2023-03-13T22:01:09.408Z,99.90
2023-03-13T22:03:36.299Z,99.90
2023-03-13T22:06:03.831Z,99.90
2023-03-13T22:08:30.890Z,99.90
2023-03-13T22:11:00.019Z,99.90
2023-03-13T22:13:29.738Z,99.90
2023-03-13T22:15:56.596Z,99.90
2023-03-13T22:18:23.581Z,99.90
2023-03-13T22:20:50.378Z,99.90
2023-03-13T22:23:17.136Z,99.90
2023-03-13T22:25:44.381Z,99.90
2023-03-13T22:28:11.865Z,99.90
2023-03-13T22:30:39.590Z,99.90
2023-03-13T22:33:07.756Z,99.90
2023-03-13T22:35:35.628Z,99.90
2023-03-13T22:38:02.531Z,99.90
2023-03-13T22:40:29.381Z,99.90
2023-03-13T22:42:56.105Z,99.90
2023-03-13T22:45:23.130Z,99.90
2023-03-13T22:47:50.106Z,99.90
2023-03-13T22:50:18.850Z,99.90
2023-03-13T22:52:45.547Z,99.90
2023-03-13T22:55:12.600Z,99.90
2023-03-13T22:57:39.349Z,99.90
2023-03-13T23:00:07.524Z,99.90
2023-03-13T23:02:34.275Z,99.90
2023-03-13T23:05:01.340Z,99.90
2023-03-13T23:07:29.666Z,99.90
2023-03-13T23:09:57.437Z,99.90
2023-03-13T23:12:25.083Z,99.90
2023-03-13T23:14:52.589Z,99.90
2023-03-13T23:17:19.384Z,99.90
2023-03-13T23:19:46.206Z,99.90
2023-03-13T23:22:17.759Z,99.90
2023-03-13T23:24:44.767Z,99.90
2023-03-13T23:27:11.730Z,99.90
2023-03-13T23:29:38.554Z,99.90
2023-03-13T23:32:05.467Z,99.90
2023-03-13T23:34:32.678Z,99.90
2023-03-13T23:36:59.690Z,99.90
2023-03-13T23:39:26.430Z,99.90
2023-03-13T23:41:53.323Z,99.90
2023-03-13T23:44:23.875Z,99.90
2023-03-13T23:46:50.828Z,99.90
2023-03-13T23:49:17.878Z,99.90
2023-03-13T23:51:44.705Z,99.90
2023-03-13T23:54:11.439Z,99.90
2023-03-13T23:56:38.193Z,99.90
2023-03-13T23:59:05.798Z,99.90
